Terminal Aerodrome Forecast
Issued by NWS

Home | Current Version | Previous Version | Text Only | Print | Product List | Glossary On
Versions: 1 2 3 4 5 6 7 8 9 10 11 12 13 14
000
FTUS46 KMTR 171700
TAFSNS
TAF
KSNS 171738Z 1718/1818 12010KT P6SM BKN050
     FM172100 19008KT P6SM VCSH SCT025 BKN050
      TEMPO 1721/1723 -SHRA BKN025
     FM172300 15006KT P6SM -RA BKN020 OVC030
      TEMPO 1802/1806 RA OVC020
     FM180600 13010KT P6SM -RA BKN030 OVC040
     FM181500 12010KT P6SM BKN025 OVC035=

USA.gov is the U.S. government's official web portal to all federal, state and local government web resources and services.